EGXS

RAF Swinderby Airport

Swinderby, United Kingdom
METAR EGXS 251750Z AUTO 19008KT 9999 // SCT110/// 14/04 Q1032
Observed Flight Rules
Sep-25 @ 17:50 UTC (an hour ago) Visual Flight Rules
Wind Visibility Clouds
190° at 8 knots 10,000+ meters
  • Scattered at 11,000' AGL
Temperatures Readings
Current 14°C / 57°F
Dewpoint 4°C / 39°F
Humidity 51%
Altimeter 30.47" Hg
Pressure 1032 hPa
Elevation 3
METAR EGXS 251750Z AUTO 19008KT 9999 // SCT110/// 14/04 Q1032
Observed Flight Rules
Sep-25 @ 17:50 UTC
(an hour ago)
VFR
Wind Visibility
190° at 8 knots 10,000+ meters
Clouds
  • Scattered at 11,000' AGL
Temperature Dewpoint
14°C / 57°F 4°C / 39°F
Humidity Altimeter Pressure
51% 30.47" Hg 1032 hPa